createdAt,value
2023-05-22T00:02:08.293Z,13.77
2023-05-22T00:04:35.354Z,14.45
2023-05-22T00:07:02.522Z,13.93
2023-05-22T00:09:29.453Z,15.10
2023-05-22T00:11:56.395Z,15.13
2023-05-22T00:14:23.791Z,14.93
2023-05-22T00:16:50.708Z,14.63
2023-05-22T00:19:18.289Z,15.20
2023-05-22T00:21:46.955Z,15.05
2023-05-22T00:24:13.856Z,14.75
2023-05-22T00:26:40.864Z,15.23
2023-05-22T00:29:08.187Z,15.27
2023-05-22T00:31:35.212Z,15.18
2023-05-22T00:34:02.178Z,14.98
2023-05-22T00:36:29.429Z,14.77
2023-05-22T00:38:56.518Z,15.10
2023-05-22T00:41:24.159Z,14.88
2023-05-22T00:43:51.447Z,14.98
2023-05-22T00:46:22.919Z,15.65
2023-05-22T00:48:50.394Z,14.82
2023-05-22T00:51:17.862Z,14.38
2023-05-22T00:53:46.474Z,14.80
2023-05-22T00:56:15.202Z,15.02
2023-05-22T00:58:42.912Z,14.68
2023-05-22T01:01:11.609Z,15.70
2023-05-22T01:03:44.744Z,16.43
2023-05-22T01:06:16.022Z,15.52
2023-05-22T01:08:44.035Z,15.57
2023-05-22T01:11:19.318Z,16.83
2023-05-22T01:14:00.944Z,15.20
2023-05-22T01:16:50.781Z,16.93
2023-05-22T01:20:01.197Z,16.27
2023-05-22T01:22:31.395Z,16.00
2023-05-22T01:25:01.381Z,15.82
2023-05-22T01:28:11.976Z,16.15
2023-05-22T01:31:02.694Z,15.75
2023-05-22T01:33:39.014Z,16.23
2023-05-22T01:36:09.778Z,15.85
2023-05-22T01:38:37.224Z,16.25
2023-05-22T01:41:04.860Z,16.48
2023-05-22T01:43:31.712Z,16.63
2023-05-22T01:46:01.584Z,16.17
2023-05-22T01:48:28.592Z,15.77
2023-05-22T01:50:56.501Z,15.73
2023-05-22T01:53:51.992Z,15.45
2023-05-22T01:56:30.926Z,15.63
2023-05-22T01:59:09.593Z,15.90
2023-05-22T02:01:38.836Z,16.60
2023-05-22T02:04:06.580Z,16.33
2023-05-22T02:06:34.053Z,16.55
2023-05-22T02:09:02.955Z,16.83
2023-05-22T02:11:33.176Z,16.67
2023-05-22T02:14:01.958Z,17.98
2023-05-22T02:16:30.345Z,17.20
2023-05-22T02:19:06.128Z,17.80
2023-05-22T02:21:36.644Z,17.85
2023-05-22T02:24:04.002Z,18.70
2023-05-22T02:26:31.149Z,17.80
2023-05-22T02:28:59.423Z,19.00
2023-05-22T02:31:26.506Z,17.80
2023-05-22T02:33:53.942Z,18.52
2023-05-22T02:36:20.972Z,18.02
2023-05-22T02:38:48.117Z,17.30
2023-05-22T02:41:15.153Z,18.17
2023-05-22T02:43:42.107Z,17.90
2023-05-22T02:46:09.118Z,18.27
2023-05-22T02:48:36.376Z,19.80
2023-05-22T02:51:03.607Z,19.30
2023-05-22T02:53:30.749Z,19.75
2023-05-22T02:55:58.978Z,19.95
2023-05-22T02:58:26.155Z,19.70
2023-05-22T03:00:54.190Z,20.95
2023-05-22T03:03:21.225Z,19.97
2023-05-22T03:05:48.204Z,21.00
2023-05-22T03:08:16.090Z,21.67
2023-05-22T03:10:43.196Z,20.08
2023-05-22T03:13:10.277Z,21.25
2023-05-22T03:15:37.385Z,21.08
2023-05-22T03:18:11.987Z,21.25
2023-05-22T03:20:40.132Z,20.77
2023-05-22T03:23:07.168Z,19.30
2023-05-22T03:25:34.271Z,19.90
2023-05-22T03:28:02.185Z,20.33
2023-05-22T03:30:32.156Z,20.58
2023-05-22T03:33:10.491Z,20.50
2023-05-22T03:35:38.171Z,21.15
2023-05-22T03:38:05.370Z,20.55
2023-05-22T03:40:32.410Z,20.00
2023-05-22T03:42:59.882Z,20.75
2023-05-22T03:45:26.829Z,20.60
2023-05-22T03:47:54.131Z,21.50
2023-05-22T03:50:21.148Z,20.45
2023-05-22T03:52:48.074Z,21.20
2023-05-22T03:55:16.482Z,20.27
2023-05-22T03:57:43.497Z,20.00
2023-05-22T04:00:11.974Z,20.20
2023-05-22T04:02:45.235Z,20.00
2023-05-22T04:05:12.835Z,19.75
2023-05-22T04:07:39.817Z,19.58
2023-05-22T04:10:07.227Z,19.65
2023-05-22T04:12:34.372Z,20.08
2023-05-22T04:15:01.473Z,19.20
2023-05-22T04:17:33.752Z,19.55
2023-05-22T04:20:00.888Z,18.85
2023-05-22T04:22:28.087Z,19.33
2023-05-22T04:24:55.154Z,19.42
2023-05-22T04:27:22.768Z,19.27
2023-05-22T04:29:52.840Z,18.85
2023-05-22T04:32:21.728Z,19.38
2023-05-22T04:34:52.797Z,20.08
2023-05-22T04:37:20.468Z,20.20
2023-05-22T04:39:52.944Z,20.63
2023-05-22T04:42:20.631Z,20.55
2023-05-22T04:44:48.318Z,21.10
2023-05-22T04:47:15.442Z,20.90
2023-05-22T04:49:43.659Z,21.10
2023-05-22T04:52:11.582Z,21.90
2023-05-22T04:54:39.077Z,21.67
2023-05-22T04:57:06.305Z,20.27
2023-05-22T04:59:37.990Z,20.98
2023-05-22T05:02:05.896Z,20.20
2023-05-22T05:04:33.373Z,20.60
2023-05-22T05:07:00.463Z,19.33
2023-05-22T05:09:27.484Z,19.10
2023-05-22T05:11:55.186Z,19.90
2023-05-22T05:14:22.368Z,20.75
2023-05-22T05:16:51.853Z,21.15
2023-05-22T05:19:21.554Z,20.42
2023-05-22T05:21:49.761Z,21.17
2023-05-22T05:24:20.041Z,21.45
2023-05-22T05:26:48.560Z,21.73
2023-05-22T05:29:17.731Z,21.52
2023-05-22T05:31:59.418Z,21.10
2023-05-22T05:34:41.680Z,20.38
2023-05-22T05:37:28.917Z,21.08
2023-05-22T05:39:59.086Z,21.05
2023-05-22T05:42:26.027Z,20.80
2023-05-22T05:44:56.201Z,20.65
2023-05-22T05:47:25.084Z,21.63
2023-05-22T05:49:52.834Z,21.23
2023-05-22T05:52:20.167Z,20.23
2023-05-22T05:54:48.553Z,21.40
2023-05-22T05:57:20.682Z,21.50
2023-05-22T05:59:47.869Z,20.90
2023-05-22T06:02:35.049Z,20.67
2023-05-22T06:05:05.373Z,20.55
2023-05-22T06:07:38.090Z,19.50
2023-05-22T06:10:09.983Z,19.77
2023-05-22T06:12:49.891Z,19.55
2023-05-22T06:15:17.914Z,19.35
2023-05-22T06:17:44.828Z,18.30
2023-05-22T06:20:12.009Z,19.05
2023-05-22T06:22:39.001Z,19.13
2023-05-22T06:25:06.578Z,18.45
2023-05-22T06:27:34.343Z,18.48
2023-05-22T06:30:04.366Z,17.88
2023-05-22T06:32:35.824Z,19.67
2023-05-22T06:35:03.525Z,18.73
2023-05-22T06:37:33.046Z,18.73
2023-05-22T06:40:01.262Z,18.23
2023-05-22T06:42:34.178Z,18.40
2023-05-22T06:45:19.937Z,18.35
2023-05-22T06:48:06.018Z,18.60
2023-05-22T06:50:37.780Z,19.60
2023-05-22T06:53:04.863Z,19.58
2023-05-22T06:55:32.064Z,20.55
2023-05-22T06:58:09.041Z,19.63
2023-05-22T07:00:36.301Z,19.27
2023-05-22T07:03:15.292Z,20.23
2023-05-22T07:05:56.850Z,19.42
2023-05-22T07:08:24.298Z,19.83
2023-05-22T07:10:51.746Z,20.08
2023-05-22T07:13:18.843Z,20.27
2023-05-22T07:15:46.616Z,18.98
2023-05-22T07:18:13.701Z,20.83
2023-05-22T07:20:42.155Z,21.38
2023-05-22T07:23:15.826Z,22.08
2023-05-22T07:25:43.508Z,21.35
2023-05-22T07:28:12.125Z,20.95
2023-05-22T07:30:59.615Z,21.90
2023-05-22T07:33:26.925Z,21.48
2023-05-22T07:35:55.037Z,21.20
2023-05-22T07:38:22.383Z,21.33
2023-05-22T07:40:56.883Z,20.88
2023-05-22T07:43:25.375Z,19.70
2023-05-22T07:45:54.386Z,18.75
2023-05-22T07:48:24.924Z,20.25
2023-05-22T07:50:52.135Z,20.52
2023-05-22T07:53:19.062Z,20.95
2023-05-22T07:55:49.641Z,20.27
2023-05-22T07:58:16.793Z,19.63
2023-05-22T08:00:45.594Z,19.00
2023-05-22T08:03:13.495Z,18.90
2023-05-22T08:05:40.680Z,17.00
2023-05-22T08:08:07.848Z,16.73
2023-05-22T08:10:52.166Z,15.60
2023-05-22T08:13:22.881Z,16.30
2023-05-22T08:15:49.807Z,15.70
2023-05-22T08:18:16.784Z,16.85
2023-05-22T08:20:43.982Z,16.48
2023-05-22T08:23:11.000Z,16.00
2023-05-22T08:25:37.879Z,15.88
2023-05-22T08:28:04.976Z,15.63
2023-05-22T08:30:31.819Z,16.15
2023-05-22T08:32:58.791Z,15.70
2023-05-22T08:35:26.035Z,15.48
2023-05-22T08:37:53.048Z,16.17
2023-05-22T08:40:21.287Z,15.43
2023-05-22T08:42:48.947Z,15.88
2023-05-22T08:45:16.276Z,16.38
2023-05-22T08:47:44.423Z,16.35
2023-05-22T08:50:12.455Z,15.48
2023-05-22T08:52:50.215Z,15.65
2023-05-22T08:55:19.560Z,15.18
2023-05-22T08:57:47.082Z,15.77
2023-05-22T09:00:15.309Z,14.85
2023-05-22T09:02:42.715Z,15.02
2023-05-22T09:05:10.111Z,15.80
2023-05-22T09:07:38.118Z,15.23
2023-05-22T09:10:08.080Z,15.13
2023-05-22T09:12:35.164Z,15.00
2023-05-22T09:15:12.228Z,14.77
2023-05-22T09:17:41.019Z,14.30
2023-05-22T09:20:10.519Z,14.90
2023-05-22T09:22:38.378Z,14.67
2023-05-22T09:25:07.036Z,15.25
2023-05-22T09:27:34.509Z,15.02
2023-05-22T09:30:01.500Z,14.40
2023-05-22T09:32:31.129Z,14.98
2023-05-22T09:35:05.259Z,14.50
2023-05-22T09:37:36.618Z,14.75
2023-05-22T09:40:08.500Z,14.07
2023-05-22T09:42:35.834Z,15.20
2023-05-22T09:45:04.330Z,13.70
2023-05-22T09:47:31.420Z,14.40
2023-05-22T09:49:59.150Z,14.45
2023-05-22T09:52:33.291Z,15.35
2023-05-22T09:55:08.779Z,15.25
2023-05-22T09:57:44.102Z,14.77
2023-05-22T10:00:18.020Z,14.57
2023-05-22T10:03:03.992Z,15.18
2023-05-22T10:05:31.935Z,15.27
2023-05-22T10:08:14.877Z,14.38
2023-05-22T10:10:43.481Z,14.23
2023-05-22T10:13:11.430Z,13.60
2023-05-22T10:15:38.767Z,13.45
2023-05-22T10:18:06.151Z,14.65
2023-05-22T10:20:33.353Z,15.30
2023-05-22T10:23:03.353Z,14.40
2023-05-22T10:25:30.729Z,14.57
2023-05-22T10:27:59.511Z,14.30
2023-05-22T10:30:40.985Z,13.23
2023-05-22T10:33:33.393Z,14.63
2023-05-22T10:36:16.711Z,14.75
2023-05-22T10:39:01.170Z,14.00
2023-05-22T10:41:28.779Z,14.85
2023-05-22T10:43:57.542Z,15.00
2023-05-22T10:46:25.037Z,13.97
2023-05-22T10:48:54.286Z,14.10
2023-05-22T10:51:22.931Z,14.25
2023-05-22T10:53:57.922Z,14.57
2023-05-22T10:56:32.221Z,14.95
2023-05-22T10:59:10.492Z,13.45
2023-05-22T11:01:40.531Z,14.35
2023-05-22T11:04:12.680Z,14.67
2023-05-22T11:06:45.877Z,14.00
2023-05-22T11:09:48.983Z,14.77
2023-05-22T11:12:25.780Z,13.52
2023-05-22T11:14:59.917Z,14.43
2023-05-22T11:17:31.508Z,13.70
2023-05-22T11:20:00.046Z,13.13
2023-05-22T11:22:54.050Z,13.00
2023-05-22T11:25:22.520Z,12.80
2023-05-22T11:27:49.727Z,13.25
2023-05-22T11:30:17.703Z,13.70
2023-05-22T11:32:45.947Z,12.77
2023-05-22T11:35:17.807Z,13.10
2023-05-22T11:37:45.578Z,11.90
2023-05-22T11:40:15.641Z,12.40
2023-05-22T11:42:42.623Z,11.57
2023-05-22T11:45:10.156Z,10.88
2023-05-22T11:47:37.813Z,11.52
2023-05-22T11:50:06.812Z,11.60
2023-05-22T11:52:35.301Z,11.93
2023-05-22T11:55:05.682Z,10.70
2023-05-22T11:57:32.872Z,11.40
2023-05-22T11:59:59.982Z,10.15
2023-05-22T12:02:27.423Z,9.88
2023-05-22T12:04:55.955Z,10.27
2023-05-22T12:07:23.911Z,10.13
2023-05-22T12:09:50.949Z,9.77
2023-05-22T12:12:19.424Z,10.10
2023-05-22T12:14:48.747Z,10.07
2023-05-22T12:17:17.425Z,9.75
2023-05-22T12:19:47.249Z,9.20
2023-05-22T12:22:14.520Z,10.20
2023-05-22T12:24:42.687Z,10.18
2023-05-22T12:27:10.561Z,9.13
2023-05-22T12:29:41.842Z,8.73
2023-05-22T12:32:11.182Z,10.60
2023-05-22T12:34:47.093Z,10.30
2023-05-22T12:37:28.030Z,10.07
2023-05-22T12:39:59.370Z,9.88
2023-05-22T12:42:27.364Z,9.30
2023-05-22T12:44:55.517Z,9.73
2023-05-22T12:47:23.894Z,8.20
2023-05-22T12:49:51.569Z,8.40
2023-05-22T12:52:18.726Z,8.50
2023-05-22T12:54:46.202Z,9.23
2023-05-22T12:57:13.188Z,9.38
2023-05-22T12:59:40.059Z,9.52
2023-05-22T13:02:07.796Z,10.07
2023-05-22T13:04:34.826Z,9.27
2023-05-22T13:07:01.702Z,10.30
2023-05-22T13:09:28.841Z,11.90
2023-05-22T13:11:55.826Z,12.02
2023-05-22T13:14:22.807Z,11.80
2023-05-22T13:16:49.986Z,12.57
2023-05-22T13:19:17.096Z,11.73
2023-05-22T13:21:44.176Z,10.57
2023-05-22T13:24:11.205Z,11.02
2023-05-22T13:26:38.548Z,10.52
2023-05-22T13:29:05.537Z,11.40
2023-05-22T13:31:37.673Z,12.95
2023-05-22T13:34:05.153Z,14.17
2023-05-22T13:36:34.423Z,14.27
2023-05-22T13:39:01.538Z,14.00
2023-05-22T13:41:28.660Z,13.23
2023-05-22T13:43:55.585Z,14.23
2023-05-22T13:46:22.747Z,14.15
2023-05-22T13:48:49.785Z,13.70
2023-05-22T13:51:16.760Z,13.13
2023-05-22T13:53:43.796Z,11.88
2023-05-22T13:56:10.731Z,13.32
2023-05-22T13:58:37.583Z,12.93
2023-05-22T14:01:04.588Z,10.48
2023-05-22T14:03:31.688Z,10.40
2023-05-22T14:05:58.615Z,10.05
2023-05-22T14:08:25.670Z,10.80
2023-05-22T14:10:52.847Z,9.93
2023-05-22T14:13:19.872Z,9.32
2023-05-22T14:15:47.108Z,8.93
2023-05-22T14:18:16.425Z,8.98
2023-05-22T14:20:43.982Z,6.68
2023-05-22T14:23:11.790Z,6.22
2023-05-22T14:25:42.874Z,6.43
2023-05-22T14:28:10.967Z,6.22
2023-05-22T14:30:38.171Z,5.97
2023-05-22T14:33:05.770Z,6.13
2023-05-22T14:35:33.151Z,5.70
2023-05-22T14:38:00.464Z,5.95
2023-05-22T14:40:27.349Z,5.90
2023-05-22T14:42:54.555Z,6.30
2023-05-22T14:45:21.961Z,6.00
2023-05-22T14:47:48.955Z,5.70
2023-05-22T14:50:20.000Z,5.57
2023-05-22T14:52:49.110Z,5.60
2023-05-22T14:55:16.925Z,5.03
2023-05-22T14:57:44.074Z,4.87
2023-05-22T15:00:12.368Z,5.45
2023-05-22T15:02:39.959Z,5.50
2023-05-22T15:05:07.786Z,6.75
2023-05-22T15:07:44.054Z,6.00
2023-05-22T15:10:12.917Z,6.22
2023-05-22T15:12:39.927Z,6.43
2023-05-22T15:15:07.364Z,6.45
2023-05-22T15:17:34.422Z,6.40
2023-05-22T15:20:01.516Z,6.05
2023-05-22T15:22:28.402Z,5.70
2023-05-22T15:25:06.905Z,5.80
2023-05-22T15:27:35.604Z,5.93
2023-05-22T15:30:03.368Z,5.40
2023-05-22T15:32:32.848Z,5.18
2023-05-22T15:34:59.925Z,5.30
2023-05-22T15:37:29.057Z,5.53
2023-05-22T15:39:57.302Z,5.60
2023-05-22T15:42:24.733Z,5.00
2023-05-22T15:44:51.700Z,5.10
2023-05-22T15:47:18.593Z,4.95
2023-05-22T15:49:45.941Z,5.00
2023-05-22T15:52:12.895Z,4.57
2023-05-22T15:54:39.962Z,4.50
2023-05-22T15:57:07.089Z,4.57
2023-05-22T15:59:34.099Z,4.70
2023-05-22T16:02:01.163Z,4.90
2023-05-22T16:04:28.124Z,4.38
2023-05-22T16:06:55.145Z,4.90
2023-05-22T16:09:22.048Z,4.00
2023-05-22T16:11:49.287Z,4.55
2023-05-22T16:14:16.284Z,4.38
2023-05-22T16:16:43.877Z,4.38
2023-05-22T16:19:11.508Z,4.63
2023-05-22T16:21:38.949Z,4.18
2023-05-22T16:24:07.043Z,4.10
2023-05-22T16:26:34.119Z,4.50
2023-05-22T16:29:01.126Z,4.60
2023-05-22T16:31:28.898Z,4.43
2023-05-22T16:33:56.027Z,4.40
2023-05-22T16:36:24.616Z,4.75
2023-05-22T16:38:53.369Z,3.95
2023-05-22T16:41:20.237Z,4.43
2023-05-22T16:43:47.252Z,4.13
2023-05-22T16:46:14.260Z,4.05
2023-05-22T16:48:41.265Z,4.03
2023-05-22T16:51:08.663Z,4.35
2023-05-22T16:53:38.120Z,4.40
2023-05-22T16:56:05.674Z,4.65
2023-05-22T16:58:32.721Z,4.38
2023-05-22T17:00:59.962Z,4.30
2023-05-22T17:03:27.030Z,3.92
2023-05-22T17:05:55.077Z,4.40
2023-05-22T17:08:22.116Z,4.47
2023-05-22T17:10:49.000Z,4.05
2023-05-22T17:13:20.964Z,3.72
2023-05-22T17:15:51.935Z,4.10
2023-05-22T17:18:19.941Z,4.18
2023-05-22T17:20:51.275Z,3.97
2023-05-22T17:23:18.440Z,4.28
2023-05-22T17:25:46.858Z,4.00
2023-05-22T17:28:14.601Z,3.95
2023-05-22T17:30:43.017Z,3.80
2023-05-22T17:33:12.239Z,4.18
2023-05-22T17:35:39.291Z,3.97
2023-05-22T17:38:08.608Z,3.65
2023-05-22T17:40:44.059Z,4.03
2023-05-22T17:43:12.393Z,3.70
2023-05-22T17:45:39.465Z,3.92
2023-05-22T17:48:07.622Z,4.07
2023-05-22T17:50:34.579Z,4.00
2023-05-22T17:53:01.716Z,3.63
2023-05-22T17:55:28.610Z,3.85
2023-05-22T17:57:56.303Z,3.27
2023-05-22T18:00:23.294Z,3.50
2023-05-22T18:02:50.619Z,3.65
2023-05-22T18:05:17.841Z,3.80
2023-05-22T18:07:44.702Z,3.50
2023-05-22T18:10:11.766Z,3.60
2023-05-22T18:12:38.904Z,3.60
2023-05-22T18:15:09.442Z,3.50
2023-05-22T18:17:36.508Z,3.30
2023-05-22T18:20:06.410Z,3.80
2023-05-22T18:22:33.258Z,3.33
2023-05-22T18:25:00.222Z,3.53
2023-05-22T18:27:27.763Z,3.20
2023-05-22T18:29:55.686Z,3.70
2023-05-22T18:32:22.936Z,3.83
2023-05-22T18:34:50.246Z,3.88
2023-05-22T18:37:17.162Z,3.90
2023-05-22T18:39:44.293Z,4.05
2023-05-22T18:42:11.701Z,3.97
2023-05-22T18:44:38.520Z,3.60
2023-05-22T18:47:06.039Z,3.92
2023-05-22T18:49:33.634Z,3.70
2023-05-22T18:52:00.495Z,4.17
2023-05-22T18:54:27.398Z,4.07
2023-05-22T18:56:54.493Z,4.22
2023-05-22T18:59:21.386Z,4.38
2023-05-22T19:01:48.283Z,4.30
2023-05-22T19:04:15.436Z,4.32
2023-05-22T19:06:42.468Z,4.20
2023-05-22T19:09:10.002Z,4.60
2023-05-22T19:11:37.179Z,5.00
2023-05-22T19:14:04.300Z,4.85
2023-05-22T19:16:31.211Z,5.00
2023-05-22T19:18:58.421Z,4.57
2023-05-22T19:21:26.404Z,5.00
2023-05-22T19:23:53.333Z,5.10
2023-05-22T19:26:20.487Z,5.18
2023-05-22T19:28:47.392Z,5.85
2023-05-22T19:31:14.362Z,5.70
2023-05-22T19:33:41.352Z,5.78
2023-05-22T19:36:08.355Z,5.55
2023-05-22T19:38:35.373Z,5.93
2023-05-22T19:41:02.361Z,6.00
2023-05-22T19:43:31.309Z,6.20
2023-05-22T19:45:58.557Z,5.90
2023-05-22T19:48:26.929Z,6.15
2023-05-22T19:50:53.791Z,6.13
2023-05-22T19:53:20.718Z,5.88
2023-05-22T19:55:47.852Z,5.90
2023-05-22T19:58:14.708Z,6.40
2023-05-22T20:00:42.340Z,7.05
2023-05-22T20:03:09.861Z,7.30
2023-05-22T20:05:36.961Z,7.57
2023-05-22T20:08:03.910Z,8.40
2023-05-22T20:10:32.334Z,8.32
2023-05-22T20:13:00.341Z,8.52
2023-05-22T20:15:27.466Z,8.50
2023-05-22T20:17:55.026Z,8.18
2023-05-22T20:20:24.881Z,8.57
2023-05-22T20:22:53.728Z,8.43
2023-05-22T20:25:21.653Z,8.70
2023-05-22T20:27:48.883Z,8.38
2023-05-22T20:30:16.200Z,7.85
2023-05-22T20:32:45.739Z,8.50
2023-05-22T20:35:13.320Z,8.00
2023-05-22T20:37:41.728Z,8.70
2023-05-22T20:40:09.724Z,8.50
2023-05-22T20:42:37.774Z,9.18
2023-05-22T20:45:08.806Z,9.82
2023-05-22T20:47:36.266Z,10.18
2023-05-22T20:50:03.535Z,11.48
2023-05-22T20:52:30.504Z,11.85
2023-05-22T20:54:58.480Z,11.88
2023-05-22T20:57:25.881Z,13.32
2023-05-22T20:59:54.949Z,12.60
2023-05-22T21:02:22.003Z,13.13
2023-05-22T21:04:48.901Z,12.85
2023-05-22T21:07:16.118Z,11.35
2023-05-22T21:09:43.187Z,10.18
2023-05-22T21:12:10.051Z,9.93
2023-05-22T21:14:36.939Z,8.77
2023-05-22T21:17:04.217Z,8.43
2023-05-22T21:19:31.336Z,7.80
2023-05-22T21:21:58.353Z,7.50
2023-05-22T21:24:25.379Z,7.10
2023-05-22T21:26:52.340Z,7.18
2023-05-22T21:29:19.240Z,7.38
2023-05-22T21:31:46.272Z,7.20
2023-05-22T21:34:13.134Z,7.00
2023-05-22T21:36:40.074Z,6.82
2023-05-22T21:39:07.154Z,6.00
2023-05-22T21:41:34.116Z,6.22
2023-05-22T21:44:01.296Z,6.47
2023-05-22T21:46:28.283Z,5.97
2023-05-22T21:48:55.430Z,5.68
2023-05-22T21:51:22.377Z,5.50
2023-05-22T21:53:49.630Z,5.53
2023-05-22T21:56:16.481Z,5.50
2023-05-22T21:58:43.397Z,5.50
2023-05-22T22:01:10.657Z,5.60
2023-05-22T22:03:38.839Z,5.85
2023-05-22T22:06:06.260Z,5.70
2023-05-22T22:08:33.368Z,5.68
2023-05-22T22:11:00.311Z,5.68
2023-05-22T22:13:27.235Z,5.70
2023-05-22T22:15:54.139Z,5.88
2023-05-22T22:18:22.052Z,6.00
2023-05-22T22:20:53.963Z,5.90
2023-05-22T22:23:21.925Z,5.90
2023-05-22T22:25:49.291Z,5.53
2023-05-22T22:28:16.288Z,6.07
2023-05-22T22:30:43.232Z,5.30
2023-05-22T22:33:10.313Z,5.32
2023-05-22T22:35:37.635Z,5.68
2023-05-22T22:38:04.703Z,5.45
2023-05-22T22:40:31.718Z,5.40
2023-05-22T22:42:58.549Z,5.40
2023-05-22T22:45:25.900Z,5.88
2023-05-22T22:47:53.187Z,5.50
2023-05-22T22:50:20.106Z,6.07
2023-05-22T22:52:47.488Z,5.70
2023-05-22T22:55:14.521Z,6.00
2023-05-22T22:57:46.999Z,6.03
2023-05-22T23:00:14.419Z,6.78
2023-05-22T23:02:41.330Z,5.82
2023-05-22T23:05:08.942Z,5.50
2023-05-22T23:07:36.198Z,5.90
2023-05-22T23:10:03.109Z,5.65
2023-05-22T23:12:32.853Z,5.90
2023-05-22T23:14:59.902Z,5.72
2023-05-22T23:17:26.838Z,5.70
2023-05-22T23:19:53.676Z,5.55
2023-05-22T23:22:20.641Z,5.65
2023-05-22T23:24:47.719Z,5.88
2023-05-22T23:27:15.687Z,5.50
2023-05-22T23:29:42.767Z,5.85
2023-05-22T23:32:10.259Z,6.80
2023-05-22T23:34:38.348Z,6.27
2023-05-22T23:37:05.424Z,6.43
2023-05-22T23:39:32.269Z,6.80
2023-05-22T23:42:02.146Z,7.20
2023-05-22T23:44:32.109Z,6.60
2023-05-22T23:46:59.737Z,8.20
2023-05-22T23:49:26.829Z,8.37
2023-05-22T23:51:53.991Z,8.48
2023-05-22T23:54:21.044Z,7.60
2023-05-22T23:56:47.971Z,8.50
2023-05-22T23:59:15.931Z,8.38
